Time;durP1;ratioP1;P1;durP2;ratioP2;P2;SDS_P1;SDS_P2;PMS_P1;PMS_P2;Temp;Humidity;BMP_temperature;BMP_pressure;BME280_temperature;BME280_humidity;BME280_pressure;Samples;Min_cycle;Max_cycle;Signal;HPM_P1;HPM_P2
2022/08/21 00:01:46;;;;;;;11.27;5.28;;;;;;;-148.88;86.29;75320.22;4994715;28;20076;-85
2022/08/21 00:04:11;;;;;;;7.05;4.85;;;;;;;-148.88;88.38;75330.38;4994585;28;20026;-85
2022/08/21 00:06:37;;;;;;;8.85;5.70;;;;;;;-148.88;88.04;75316.16;4994853;28;20022;-85
2022/08/21 00:09:04;;;;;;;9.05;5.05;;;;;;;-148.88;88.00;75338.50;4994671;28;20077;-86
2022/08/21 00:11:29;;;;;;;13.27;5.60;;;;;;;-148.88;89.45;75336.47;4994545;28;20073;-85
2022/08/21 00:13:55;;;;;;;7.68;5.03;;;;;;;-148.88;87.92;75340.53;4995950;28;20062;-85
2022/08/21 00:16:20;;;;;;;10.25;5.93;;;;;;;-148.88;87.93;75334.44;4995947;28;20034;-86
2022/08/21 00:18:46;;;;;;;9.27;6.20;;;;;;;-148.88;87.80;75336.47;4996142;28;20038;-85
2022/08/21 00:21:13;;;;;;;9.82;5.80;;;;;;;-148.88;87.81;75338.50;4996074;28;20556;-86
2022/08/21 00:23:39;;;;;;;9.50;5.18;;;;;;;-148.88;88.00;75330.38;4994674;28;20023;-85
2022/08/21 00:26:05;;;;;;;8.18;5.63;;;;;;;-148.88;87.89;75334.44;4995982;28;20041;-86
2022/08/21 00:28:31;;;;;;;10.30;5.32;;;;;;;-148.88;87.23;75338.50;4997183;28;20026;-88
2022/08/21 00:30:57;;;;;;;13.05;5.70;;;;;;;-148.88;87.13;75346.63;4994623;28;20503;-85
2022/08/21 00:33:23;;;;;;;11.20;6.05;;;;;;;-148.88;89.43;75387.25;4994221;28;20032;-85
2022/08/21 00:35:49;;;;;;;11.45;6.00;;;;;;;-148.88;91.29;75411.63;4995560;28;20052;-86
2022/08/21 00:38:14;;;;;;;7.22;5.88;;;;;;;-148.88;92.26;75444.13;4995697;28;20392;-86
2022/08/21 00:40:45;;;;;;;10.38;6.18;;;;;;;-148.88;93.72;75464.44;4994465;28;20457;-85
2022/08/21 00:43:13;;;;;;;8.57;5.82;;;;;;;-148.88;95.30;75468.50;4994742;28;20445;-86
2022/08/21 00:45:39;;;;;;;13.18;7.35;;;;;;;-148.88;97.49;75488.81;4994405;28;20030;-86
2022/08/21 00:48:05;;;;;;;13.48;7.65;;;;;;;-148.88;98.22;75486.78;4994608;28;20073;-86
2022/08/21 00:50:34;;;;;;;13.55;7.78;;;;;;;-148.88;98.21;75472.56;4994211;28;20026;-86
2022/08/21 00:53:01;;;;;;;9.80;7.55;;;;;;;-148.88;97.49;75484.75;4994431;28;20026;-85
2022/08/21 00:55:29;;;;;;;9.65;7.50;;;;;;;-148.88;97.34;75488.81;4995334;28;20036;-86
2022/08/21 00:57:58;;;;;;;10.38;6.95;;;;;;;-148.88;96.90;75478.66;4994407;28;20026;-85
2022/08/21 01:00:28;;;;;;;10.82;7.55;;;;;;;-148.88;96.25;75466.47;4995546;28;20034;-85
2022/08/21 01:02:54;;;;;;;19.45;7.15;;;;;;;-148.88;95.94;75458.34;4995691;28;20028;-86
2022/08/21 01:05:20;;;;;;;13.50;6.80;;;;;;;-148.88;95.83;75448.19;4995666;28;20080;-84
2022/08/21 01:07:46;;;;;;;11.25;6.65;;;;;;;-148.88;95.35;75444.13;4995363;28;20033;-87
2022/08/21 01:10:12;;;;;;;11.40;6.95;;;;;;;-148.88;94.55;75442.09;4993517;28;20022;-86
2022/08/21 01:12:39;;;;;;;11.73;7.15;;;;;;;-148.88;94.88;75427.88;4993858;28;20026;-85
2022/08/21 01:15:06;;;;;;;13.35;7.03;;;;;;;-148.88;95.06;75423.81;4995137;28;20493;-85
2022/08/21 01:17:33;;;;;;;10.93;6.13;;;;;;;-148.88;94.63;75411.63;4993833;28;20034;-86
2022/08/21 01:19:59;;;;;;;9.07;6.10;;;;;;;-148.88;94.02;75393.34;4995675;28;20033;-86
2022/08/21 01:22:26;;;;;;;11.73;6.03;;;;;;;-148.88;93.86;75389.28;4994608;28;20062;-85
2022/08/21 01:24:51;;;;;;;12.30;6.30;;;;;;;-148.88;93.00;75381.16;4994689;28;20033;-85
2022/08/21 01:27:17;;;;;;;11.25;5.57;;;;;;;-148.88;92.46;75375.06;4995545;28;20030;-86
2022/08/21 01:29:50;;;;;;;8.07;5.78;;;;;;;-148.88;92.04;75366.94;4994087;28;20026;-85
2022/08/21 01:32:17;;;;;;;;;;;;;;;-148.88;92.01;75364.91;4995644;28;20089;-85
2022/08/21 01:34:44;;;;;;;12.52;5.90;;;;;;;-148.88;91.53;75358.81;4993757;28;19956;-85
2022/08/21 01:37:11;;;;;;;11.05;6.03;;;;;;;-148.88;91.24;75346.63;4995221;28;20030;-86
2022/08/21 01:39:37;;;;;;;8.50;5.38;;;;;;;-148.88;91.25;75338.50;4994924;28;20033;-86
2022/08/21 01:42:04;;;;;;;8.90;5.45;;;;;;;-148.88;90.81;75350.69;4994326;28;20110;-85
2022/08/21 01:44:30;;;;;;;8.75;5.85;;;;;;;-148.88;90.36;75356.78;4994867;28;20030;-85
2022/08/21 01:46:57;;;;;;;10.27;5.38;;;;;;;-148.88;90.49;75356.78;4995726;28;20105;-86
2022/08/21 01:49:22;;;;;;;11.45;5.90;;;;;;;-148.88;90.48;75356.78;4994527;28;20053;-85
2022/08/21 01:51:48;;;;;;;10.48;6.28;;;;;;;-148.88;90.80;75358.81;4993266;28;20457;-85
2022/08/21 01:54:13;;;;;;;9.18;6.32;;;;;;;-148.88;91.25;75366.94;4994432;28;20026;-85
2022/08/21 01:56:41;;;;;;;9.25;6.35;;;;;;;-148.88;91.95;75375.06;4994572;28;20022;-86
2022/08/21 01:59:07;;;;;;;11.07;6.47;;;;;;;-148.88;93.12;75387.25;4994371;28;20101;-86
2022/08/21 02:01:32;;;;;;;7.65;6.30;;;;;;;-148.88;93.35;75383.19;4994282;28;20069;-86
2022/08/21 02:04:23;;;;;;;10.68;6.65;;;;;;;-148.88;93.01;75381.16;4994428;28;20026;-86
2022/08/21 02:06:50;;;;;;;9.85;6.30;;;;;;;-148.88;93.14;75379.13;4993917;28;20094;-85
2022/08/21 02:09:16;;;;;;;9.32;6.43;;;;;;;-148.88;93.17;75371.00;4994788;28;20565;-85
2022/08/21 02:11:42;;;;;;;10.07;6.10;;;;;;;-148.88;93.17;75362.88;4993322;28;20072;-85
2022/08/21 02:14:14;;;;;;;10.02;6.13;;;;;;;-148.88;92.22;75362.88;4993363;28;20022;-85
2022/08/21 02:16:39;;;;;;;9.30;6.25;;;;;;;-148.88;92.43;75366.94;4994664;28;20033;-85
2022/08/21 02:19:05;;;;;;;11.65;6.68;;;;;;;-148.88;93.01;75360.84;4993200;28;20113;-84
2022/08/21 02:21:31;;;;;;;12.05;5.80;;;;;;;-148.88;92.84;75354.75;4994132;28;20026;-85
2022/08/21 02:23:56;;;;;;;10.27;6.05;;;;;;;-148.88;92.33;75346.63;4994531;28;20026;-85
2022/08/21 02:26:21;;;;;;;9.02;5.88;;;;;;;-148.88;91.83;75348.66;4994193;28;20469;-86
2022/08/21 02:28:47;;;;;;;12.27;6.03;;;;;;;-148.88;90.81;75352.72;4994305;28;20076;-84
2022/08/21 02:31:13;;;;;;;10.57;6.05;;;;;;;-148.88;91.29;75350.69;4993119;28;20393;-85
2022/08/21 02:33:39;;;;;;;10.32;6.43;;;;;;;-148.88;91.70;75352.72;4994128;28;20478;-85
2022/08/21 02:36:05;;;;;;;9.45;6.07;;;;;;;-148.88;91.10;75346.63;4993974;28;20026;-85
2022/08/21 02:38:34;;;;;;;10.68;6.78;;;;;;;-148.88;92.70;75366.94;4992848;28;20026;-85
2022/08/21 02:41:00;;;;;;;9.00;5.82;;;;;;;-148.88;92.85;75362.88;4992653;28;20100;-85
2022/08/21 02:43:27;;;;;;;11.70;6.20;;;;;;;-148.88;92.26;75350.69;4994230;28;20478;-85
2022/08/21 02:45:54;;;;;;;11.30;5.47;;;;;;;-148.88;91.70;75358.81;4994440;28;20027;-85
2022/08/21 02:48:23;;;;;;;8.60;5.53;;;;;;;-148.88;91.09;75358.81;4994319;28;20500;-85
2022/08/21 02:50:57;;;;;;;10.82;6.03;;;;;;;-148.88;90.97;75371.00;4992998;28;20023;-85
2022/08/21 02:53:23;;;;;;;12.05;6.78;;;;;;;-148.88;91.07;75387.25;4994367;28;20038;-86
2022/08/21 02:55:50;;;;;;;7.13;5.43;;;;;;;-148.88;91.23;75362.88;4998333;28;20472;-84
2022/08/21 02:58:28;;;;;;;10.23;5.90;;;;;;;-148.88;91.43;75366.94;4997975;28;20104;-84
2022/08/21 03:00:53;;;;;;;7.57;5.60;;;;;;;-148.88;90.95;75371.00;4996500;28;20030;-85
2022/08/21 03:03:20;;;;;;;8.82;5.90;;;;;;;-148.88;91.41;75383.19;4997364;28;20022;-85
2022/08/21 03:05:47;;;;;;;10.52;5.93;;;;;;;-148.88;91.44;75391.31;4996986;28;20022;-85
2022/08/21 03:08:14;;;;;;;10.48;6.00;;;;;;;-148.88;91.82;75381.16;4997397;28;20113;-85
2022/08/21 03:10:42;;;;;;;14.93;6.20;;;;;;;-148.88;91.09;75383.19;4996086;28;20068;-85
2022/08/21 03:13:07;;;;;;;9.77;5.72;;;;;;;-148.88;90.92;75391.31;4997246;28;20046;-84
2022/08/21 03:15:33;;;;;;;8.02;5.25;;;;;;;-148.88;90.79;75393.34;4997304;28;20065;-86
2022/08/21 03:17:59;;;;;;;8.85;5.70;;;;;;;-148.88;90.92;75395.38;4997250;28;20035;-85
2022/08/21 03:20:27;;;;;;;7.60;5.30;;;;;;;-148.88;91.31;75389.28;4995903;28;20046;-84
2022/08/21 03:22:54;;;;;;;8.32;5.32;;;;;;;-148.88;91.33;75397.41;4997085;28;20030;-84
2022/08/21 03:25:21;;;;;;;9.10;5.40;;;;;;;-148.88;91.83;75407.56;4997206;28;20081;-85
2022/08/21 03:27:48;;;;;;;9.05;5.75;;;;;;;-148.88;92.22;75415.69;4997302;28;20393;-85
2022/08/21 03:30:14;;;;;;;8.10;4.60;;;;;;;-148.88;92.54;75405.53;4997621;28;20057;-84
2022/08/21 03:32:40;;;;;;;8.15;5.53;;;;;;;-148.88;92.48;75407.56;4995901;28;20080;-85
2022/08/21 03:35:06;;;;;;;16.45;5.75;;;;;;;-148.88;93.00;75415.69;4996297;28;20030;-85
2022/08/21 03:37:32;;;;;;;8.77;5.60;;;;;;;-148.88;92.85;75413.66;4997352;28;20041;-85
2022/08/21 03:39:57;;;;;;;10.27;5.50;;;;;;;-148.88;91.90;75411.63;5002758;28;20109;-84
2022/08/21 03:42:23;;;;;;;7.45;5.00;;;;;;;-148.88;91.52;75423.81;5010159;28;20022;-85
2022/08/21 03:44:48;;;;;;;9.30;5.13;;;;;;;-148.88;91.29;75427.88;5007285;28;20096;-85
2022/08/21 03:47:14;;;;;;;8.75;5.30;;;;;;;-148.88;91.39;75423.81;5011389;28;20038;-85
2022/08/21 03:49:40;;;;;;;11.50;5.75;;;;;;;-148.88;91.10;75423.81;5011602;28;20032;-84
2022/08/21 03:52:05;;;;;;;10.13;6.20;;;;;;;-148.88;91.27;75427.88;5011379;28;20022;-86
2022/08/21 03:54:31;;;;;;;9.38;5.40;;;;;;;-148.88;91.31;75421.78;5012952;28;20065;-85
2022/08/21 03:56:57;;;;;;;10.02;6.25;;;;;;;-148.88;91.70;75411.63;5012307;28;20030;-85
2022/08/21 03:59:23;;;;;;;9.95;5.95;;;;;;;-148.88;91.48;75423.81;5012159;28;20037;-85
2022/08/21 04:01:54;;;;;;;7.22;5.50;;;;;;;-148.88;91.48;75423.81;5011302;28;20026;-86
2022/08/21 04:04:19;;;;;;;11.23;6.55;;;;;;;-148.88;91.68;75419.75;5010420;28;20497;-85
2022/08/21 04:06:44;;;;;;;8.38;6.68;;;;;;;-148.88;92.21;75433.97;5006019;28;20036;-85
2022/08/21 04:09:09;;;;;;;9.73;6.28;;;;;;;-148.88;92.47;75431.94;5001756;28;20037;-86
2022/08/21 04:11:35;;;;;;;11.48;6.63;;;;;;;-148.88;92.38;75440.06;5005320;28;20056;-85
2022/08/21 04:14:00;;;;;;;10.82;6.65;;;;;;;-148.88;92.97;75450.22;5002899;28;20026;-86
2022/08/21 04:16:25;;;;;;;8.75;6.40;;;;;;;-148.88;93.32;75450.22;5003215;28;20050;-86
2022/08/21 04:18:50;;;;;;;11.38;7.00;;;;;;;-148.88;93.43;75458.34;4998573;28;20489;-87
2022/08/21 04:21:16;;;;;;;10.65;7.38;;;;;;;-148.88;93.92;75460.38;4997653;28;20102;-86
2022/08/21 04:23:41;;;;;;;9.85;7.10;;;;;;;-148.88;94.24;75456.31;4995865;28;20370;-84
2022/08/21 04:26:06;;;;;;;12.02;8.20;;;;;;;-148.88;94.60;75464.44;4997142;28;20026;-85
2022/08/21 04:28:32;;;;;;;12.30;8.00;;;;;;;-148.88;95.28;75466.47;4998750;28;20034;-85
2022/08/21 04:30:58;;;;;;;13.75;8.20;;;;;;;-148.88;95.67;75466.47;5000572;28;20496;-85
2022/08/21 04:33:24;;;;;;;10.80;8.48;;;;;;;-148.88;95.46;75480.69;5001024;28;20026;-85
2022/08/21 04:35:50;;;;;;;13.65;8.63;;;;;;;-148.88;95.91;75476.63;5001152;28;20018;-85
2022/08/21 04:38:15;;;;;;;10.73;8.10;;;;;;;-148.88;96.29;75476.63;5000453;28;20034;-86
2022/08/21 04:40:40;;;;;;;9.88;7.40;;;;;;;-148.88;96.00;75484.75;4996568;28;20034;-85
2022/08/21 04:43:09;;;;;;;16.38;7.97;;;;;;;-148.88;95.99;75490.84;4999873;28;20080;-86
2022/08/21 04:45:40;;;;;;;13.45;8.13;;;;;;;-148.88;95.77;75492.88;4999096;28;20022;-86
2022/08/21 04:48:08;;;;;;;11.90;8.02;;;;;;;-148.88;96.33;75488.81;5000543;28;20026;-86
2022/08/21 04:50:38;;;;;;;12.30;8.13;;;;;;;-148.88;96.50;75494.91;5004700;28;20086;-86
2022/08/21 04:53:07;;;;;;;13.68;8.40;;;;;;;-148.88;97.03;75501.00;5004813;28;20070;-86
2022/08/21 04:55:32;;;;;;;14.35;8.32;;;;;;;-148.88;96.42;75505.06;5005207;28;20026;-86
2022/08/21 04:57:59;;;;;;;10.15;7.88;;;;;;;-148.88;96.81;75509.13;5001002;28;20045;-86
2022/08/21 05:00:24;;;;;;;11.48;7.80;;;;;;;-148.88;97.29;75509.13;5000089;28;20026;-86
2022/08/21 05:02:55;;;;;;;11.75;7.65;;;;;;;-148.88;97.17;75515.22;4994938;28;20041;-84
2022/08/21 05:05:21;;;;;;;10.40;7.65;;;;;;;-148.88;97.18;75517.25;4993671;28;20022;-85
2022/08/21 05:07:46;;;;;;;12.23;7.88;;;;;;;-148.88;97.08;75521.31;4997007;28;20051;-87
2022/08/21 05:10:13;;;;;;;9.35;7.13;;;;;;;-148.88;97.51;75523.34;5000315;28;20033;-86
2022/08/21 05:12:41;;;;;;;13.50;7.65;;;;;;;-148.88;97.71;75525.38;5000332;28;20044;-86
2022/08/21 05:15:07;;;;;;;13.82;8.05;;;;;;;-148.88;98.43;75531.47;4997259;28;20393;-86
2022/08/21 05:17:32;;;;;;;12.07;8.43;;;;;;;-148.88;98.92;75531.47;4996890;28;20027;-86
2022/08/21 05:19:57;;;;;;;12.95;8.35;;;;;;;-148.88;99.16;75529.44;4997264;28;20112;-86
2022/08/21 05:22:24;;;;;;;11.95;8.45;;;;;;;-148.88;98.78;75523.34;4994996;28;20027;-86
2022/08/21 05:24:50;;;;;;;12.35;8.65;;;;;;;-148.88;98.87;75517.25;4995692;28;20033;-85
2022/08/21 05:27:16;;;;;;;12.73;8.98;;;;;;;-148.88;98.79;75513.19;4993986;28;20033;-86
2022/08/21 05:29:41;;;;;;;11.45;9.30;;;;;;;-148.88;98.94;75513.19;4995217;28;20027;-87
2022/08/21 05:32:11;;;;;;;12.38;9.45;;;;;;;-148.88;99.35;75505.06;4998585;28;20030;-87
2022/08/21 05:34:36;;;;;;;12.10;8.95;;;;;;;-148.88;99.12;75501.00;5000972;28;20026;-86
2022/08/21 05:37:01;;;;;;;14.30;9.45;;;;;;;-148.88;99.12;75496.94;4995353;28;20051;-86
2022/08/21 05:39:26;;;;;;;13.45;9.02;;;;;;;-148.88;99.23;75494.91;4996357;28;20101;-86
2022/08/21 05:41:52;;;;;;;12.43;9.82;;;;;;;-148.88;99.18;75494.91;4994634;28;20386;-86
2022/08/21 05:44:17;;;;;;;14.00;10.65;;;;;;;-148.88;99.36;75492.88;4994091;28;20030;-84
2022/08/21 05:46:42;;;;;;;13.05;9.82;;;;;;;-148.88;99.37;75480.69;4994560;28;20473;-84
2022/08/21 05:49:08;;;;;;;16.40;10.38;;;;;;;-148.88;99.60;75480.69;4994816;28;20038;-86
2022/08/21 05:51:33;;;;;;;14.73;10.80;;;;;;;-148.88;99.70;75478.66;4997919;28;20489;-85
2022/08/21 05:53:58;;;;;;;15.70;9.95;;;;;;;-148.88;99.86;75470.53;4994760;28;20081;-86
2022/08/21 05:56:24;;;;;;;14.98;10.82;;;;;;;-148.88;99.76;75460.38;4995625;28;20030;-86
2022/08/21 05:58:49;;;;;;;13.65;10.70;;;;;;;-148.88;99.58;75456.31;4994984;28;20030;-87
2022/08/21 06:01:15;;;;;;;19.23;10.80;;;;;;;-148.88;99.62;75452.25;4994363;28;20037;-86
2022/08/21 06:03:41;;;;;;;14.05;10.93;;;;;;;-148.88;99.78;75444.13;4993072;28;20452;-85
2022/08/21 06:06:07;;;;;;;16.23;10.88;;;;;;;-148.88;99.92;75431.94;4993480;28;20026;-87
2022/08/21 06:08:32;;;;;;;16.52;11.63;;;;;;;-148.88;99.74;75429.91;4994856;28;20135;-86
2022/08/21 06:10:59;;;;;;;17.35;12.07;;;;;;;-148.88;99.81;75421.78;4994633;28;20026;-86
2022/08/21 06:13:25;;;;;;;15.05;11.55;;;;;;;-148.88;100.00;75411.63;4993635;28;20030;-86
2022/08/21 06:16:06;;;;;;;15.75;10.70;;;;;;;-148.88;100.00;75399.44;4994034;28;20056;-86
2022/08/21 06:18:32;;;;;;;14.68;11.35;;;;;;;-148.88;100.00;75391.31;4993157;28;20382;-85
2022/08/21 06:20:57;;;;;;;15.52;11.88;;;;;;;-148.88;100.00;75389.28;4992184;28;20477;-85
2022/08/21 06:23:22;;;;;;;17.73;12.60;;;;;;;-148.88;100.00;75375.06;4993931;28;20026;-85
2022/08/21 06:25:48;;;;;;;14.60;12.02;;;;;;;-148.88;100.00;75379.13;4993717;28;20033;-85
2022/08/21 06:28:13;;;;;;;17.50;11.60;;;;;;;-148.88;99.21;75364.91;4992518;28;20503;-87
2022/08/21 06:30:39;;;;;;;15.60;12.20;;;;;;;-148.88;99.25;75354.75;4997976;28;20022;-86
2022/08/21 06:33:05;;;;;;;15.77;11.10;;;;;;;-148.88;98.51;75350.69;4998005;28;20058;-86
2022/08/21 06:35:31;;;;;;;14.30;11.00;;;;;;;-148.88;97.71;75342.56;4996763;28;20493;-86
2022/08/21 06:37:57;;;;;;;16.15;11.55;;;;;;;-148.88;97.88;75326.31;4996659;28;20029;-86
2022/08/21 06:40:23;;;;;;;16.15;10.90;;;;;;;-148.88;97.49;75320.22;4997680;28;20508;-86
2022/08/21 06:42:48;;;;;;;15.18;11.13;;;;;;;-148.88;96.83;75316.16;4996714;28;20027;-86
2022/08/21 06:45:14;;;;;;;15.77;10.65;;;;;;;-148.88;96.50;75308.03;4996412;28;20029;-86
2022/08/21 06:47:39;;;;;;;16.88;10.95;;;;;;;-148.88;96.46;75303.97;4998746;28;20423;-86
2022/08/21 06:50:07;;;;;;;15.38;10.75;;;;;;;-148.88;95.68;75297.88;4996895;28;20404;-86
2022/08/21 06:52:33;;;;;;;12.48;9.73;;;;;;;-148.88;94.94;75291.78;4996657;28;20026;-86
2022/08/21 06:54:58;;;;;;;12.88;10.23;;;;;;;-148.88;94.58;75283.66;4996657;28;20217;-86
2022/08/21 06:57:25;;;;;;;18.92;10.57;;;;;;;-148.88;94.47;75273.53;4998016;28;20096;-86
2022/08/21 06:59:50;;;;;;;15.95;10.35;;;;;;;-148.88;93.01;75263.38;4995776;28;20514;-85
2022/08/21 07:02:16;;;;;;;13.60;9.55;;;;;;;-148.88;91.95;75253.22;4996946;28;20027;-85
2022/08/21 07:04:41;;;;;;;12.60;9.57;;;;;;;-148.88;92.01;75247.13;4996869;28;20034;-85
2022/08/21 07:07:06;;;;;;;14.05;9.85;;;;;;;-148.88;91.93;75228.84;4996867;28;20115;-85
2022/08/21 07:09:32;;;;;;;13.18;9.32;;;;;;;-148.88;90.45;75216.66;4997356;28;20041;-85
2022/08/21 07:11:58;;;;;;;11.75;8.70;;;;;;;-148.88;89.78;75200.41;4996260;28;20072;-86
2022/08/21 07:14:24;;;;;;;14.07;7.95;;;;;;;-148.88;86.27;75198.38;4996689;28;20026;-86
2022/08/21 07:16:50;;;;;;;11.90;7.78;;;;;;;-148.88;86.77;75188.22;4997666;28;20054;-86
2022/08/21 07:19:16;;;;;;;12.25;8.05;;;;;;;-148.88;85.51;75176.03;4997475;28;20038;-87
2022/08/21 07:21:41;;;;;;;11.05;6.97;;;;;;;-148.88;86.79;75165.88;4997065;28;20076;-86
2022/08/21 07:24:06;;;;;;;14.07;8.05;;;;;;;-148.88;84.45;75151.66;4999936;28;20029;-85
2022/08/21 07:26:32;;;;;;;10.02;6.72;;;;;;;-148.88;84.68;75147.59;4999166;28;20039;-84
2022/08/21 07:28:57;;;;;;;10.43;6.50;;;;;;;-148.88;81.19;75133.38;5000837;28;20086;-86
2022/08/21 07:31:24;;;;;;;10.27;6.10;;;;;;;-148.88;80.33;75115.09;4999755;28;20460;-85
2022/08/21 07:33:50;;;;;;;11.48;5.88;;;;;;;-148.88;79.14;75119.16;5001889;28;20054;-85
2022/08/21 07:36:16;;;;;;;10.60;5.20;;;;;;;-148.88;77.61;75078.56;4998005;28;20106;-84
2022/08/21 07:38:41;;;;;;;9.30;6.10;;;;;;;-148.88;78.40;75086.69;4995476;28;20045;-83
2022/08/21 07:41:14;;;;;;;15.05;7.07;;;;;;;-148.88;78.78;75080.59;4996077;28;20132;-85
2022/08/21 07:43:39;;;;;;;11.52;5.15;;;;;;;-148.88;77.88;75066.38;4996548;28;20389;-83
2022/08/21 07:46:04;;;;;;;8.02;3.83;;;;;;;-148.88;72.76;75044.03;4995213;28;20061;-85
2022/08/21 07:48:30;;;;;;;9.35;4.10;;;;;;;-148.88;71.68;75029.81;4996288;28;20030;-85
2022/08/21 07:50:55;;;;;;;12.23;5.20;;;;;;;-148.88;73.71;75005.44;4997319;28;20037;-83
2022/08/21 07:53:21;;;;;;;10.98;4.72;;;;;;;-148.88;72.83;75001.38;4997870;28;20026;-84
2022/08/21 07:55:46;;;;;;;6.93;4.15;;;;;;;-148.88;71.53;74972.94;5001057;28;20092;-86
2022/08/21 07:58:11;;;;;;;8.85;3.55;;;;;;;-148.88;69.90;74972.94;4999678;28;20404;-86
2022/08/21 08:00:37;;;;;;;9.30;3.85;;;;;;;-148.88;68.94;74960.75;4999059;28;20033;-86
2022/08/21 08:03:02;;;;;;;9.57;3.55;;;;;;;-148.88;68.43;74968.88;4999355;28;20031;-85
2022/08/21 08:05:30;;;;;;;7.75;3.08;;;;;;;-148.88;69.48;74960.75;4998937;28;20396;-85
2022/08/21 08:07:56;;;;;;;7.90;2.60;;;;;;;-148.88;68.13;74952.63;5001059;28;20034;-86
2022/08/21 08:10:23;;;;;;;10.13;3.72;;;;;;;-148.88;67.52;74950.59;4998916;28;20461;-85
2022/08/21 08:12:51;;;;;;;6.40;3.40;;;;;;;-148.88;65.68;74960.75;4999176;28;20026;-87
2022/08/21 08:15:20;;;;;;;10.68;3.95;;;;;;;-148.88;66.86;74940.47;4996320;28;20033;-84
2022/08/21 08:17:46;;;;;;;7.50;3.50;;;;;;;-148.88;66.86;74938.44;4994349;28;20113;-84
2022/08/21 08:20:14;;;;;;;6.85;3.00;;;;;;;-148.88;66.56;74916.09;4995620;28;20057;-83
2022/08/21 08:22:41;;;;;;;6.65;3.03;;;;;;;-148.88;66.11;74887.66;4994728;28;20026;-85
2022/08/21 08:25:08;;;;;;;8.80;3.35;;;;;;;-148.88;65.46;74877.50;4995381;28;20018;-85
2022/08/21 08:27:33;;;;;;;10.52;3.05;;;;;;;-148.88;63.80;74869.38;4994699;28;20113;-83
2022/08/21 08:29:58;;;;;;;11.00;3.20;;;;;;;-148.88;64.33;74871.41;4994300;28;20129;-84
2022/08/21 08:32:24;;;;;;;7.85;3.33;;;;;;;-148.88;63.53;74857.19;4994649;28;20026;-84
2022/08/21 08:34:51;;;;;;;8.50;3.22;;;;;;;-148.88;64.04;74834.84;4994790;28;20501;-84
2022/08/21 08:37:18;;;;;;;8.10;3.35;;;;;;;-148.88;64.53;74842.97;4994897;28;20440;-84
2022/08/21 08:39:43;;;;;;;8.15;2.90;;;;;;;-148.88;61.19;74828.75;4994322;28;20026;-85
2022/08/21 08:42:14;;;;;;;5.57;2.83;;;;;;;-148.88;59.91;74816.56;4994423;28;20117;-84
2022/08/21 08:44:46;;;;;;;6.78;3.42;;;;;;;-148.88;60.63;74800.34;4994391;28;20030;-85
2022/08/21 08:47:15;;;;;;;7.97;2.93;;;;;;;-148.88;61.14;74782.06;4994678;28;20445;-84
2022/08/21 08:49:54;;;;;;;6.38;2.20;;;;;;;-148.88;60.50;74769.88;4994159;28;20137;-83
2022/08/21 08:52:28;;;;;;;6.93;2.92;;;;;;;-148.88;60.10;74713.00;4993901;28;20053;-85
2022/08/21 08:55:03;;;;;;;6.32;2.38;;;;;;;-148.88;57.49;74729.25;4994105;28;20045;-85
2022/08/21 08:57:30;;;;;;;12.10;3.00;;;;;;;-148.88;57.34;74749.56;4995042;28;20037;-83
2022/08/21 08:59:59;;;;;;;7.60;3.10;;;;;;;-148.88;57.48;74725.19;4995118;28;20374;-84
2022/08/21 09:02:27;;;;;;;7.00;3.10;;;;;;;-148.88;58.33;74694.75;4994966;28;20366;-84
2022/08/21 09:04:53;;;;;;;8.38;2.85;;;;;;;-148.88;59.57;74684.59;4994194;28;20088;-83
2022/08/21 09:07:45;;;;;;;9.02;3.03;;;;;;;-148.88;56.11;74678.50;4995030;28;20019;-83
2022/08/21 09:10:28;;;;;;;7.18;2.35;;;;;;;-148.88;57.83;74652.09;4995149;28;20026;-84
2022/08/21 09:13:20;;;;;;;6.95;2.60;;;;;;;-148.88;55.28;74652.09;4993711;28;20019;-85
2022/08/21 09:16:13;;;;;;;5.35;2.75;;;;;;;-148.88;53.15;74633.81;4994443;28;20030;-84
2022/08/21 09:18:56;;;;;;;8.60;2.72;;;;;;;-148.88;52.37;74619.59;4995742;28;20089;-85
2022/08/21 09:21:37;;;;;;;8.80;2.80;;;;;;;-148.88;52.42;74619.59;4994262;28;20453;-84
2022/08/21 09:24:29;;;;;;;7.32;2.80;;;;;;;-148.88;53.81;74656.16;4994150;28;20018;-84
2022/08/21 09:27:07;;;;;;;8.13;3.15;;;;;;;-148.88;54.93;74627.72;4957325;28;20489;-83
2022/08/21 09:29:35;;;;;;;7.70;2.90;;;;;;;-148.88;52.41;74607.41;4994898;28;20037;-84
2022/08/21 09:32:03;;;;;;;6.93;3.22;;;;;;;-148.88;52.40;74597.25;4990986;28;20026;-83
2022/08/21 09:34:31;;;;;;;5.88;2.80;;;;;;;-148.88;51.57;74568.84;4993940;28;20105;-84
2022/08/21 09:36:57;;;;;;;8.27;2.65;;;;;;;-148.88;50.67;74544.47;4994841;28;20027;-84
2022/08/21 09:39:31;;;;;;;8.15;2.85;;;;;;;-148.88;51.46;74542.44;4994557;28;20081;-84
2022/08/21 09:42:06;;;;;;;7.32;3.22;;;;;;;-148.88;51.34;74514.00;4993498;28;20034;-84
2022/08/21 09:44:38;;;;;;;8.90;2.83;;;;;;;-148.88;50.72;74530.25;5001887;28;20026;-83
2022/08/21 09:47:04;;;;;;;6.32;2.55;;;;;;;-148.88;51.14;74526.19;4994520;28;20027;-84
2022/08/21 09:49:34;;;;;;;6.28;2.72;;;;;;;-148.88;48.90;74534.31;4993694;28;20109;-83
2022/08/21 09:52:01;;;;;;;8.63;2.83;;;;;;;-148.88;49.27;74509.94;4993557;28;20022;-84
2022/08/21 09:54:31;;;;;;;9.05;2.92;;;;;;;-148.88;49.20;74514.00;4993677;28;20026;-83
2022/08/21 09:59:53;;;;;;;7.47;3.45;;;;;;;-148.88;48.72;74438.88;4994914;28;20484;-84
2022/08/21 10:02:24;;;;;;;8.20;3.75;;;;;;;-148.88;48.41;74487.63;4994745;28;20059;-81
2022/08/21 10:04:53;;;;;;;7.45;3.08;;;;;;;-148.88;48.52;74453.09;4995202;28;20109;-82
2022/08/21 10:07:22;;;;;;;6.03;3.00;;;;;;;-148.88;47.86;74438.88;4994012;28;20032;-81
2022/08/21 10:09:59;;;;;;;7.38;3.15;;;;;;;-148.88;47.37;74351.56;4994824;28;20029;-83
2022/08/21 10:12:34;;;;;;;9.23;3.17;;;;;;;-148.88;47.35;74323.16;4992689;28;20037;-84
2022/08/21 10:15:42;;;;;;;8.27;3.67;;;;;;;-148.88;47.45;74315.03;4993142;28;20121;-85
2022/08/21 10:18:29;;;;;;;7.38;3.92;;;;;;;-148.88;46.69;74329.22;4982432;28;20030;-82
2022/08/21 10:21:30;;;;;;;8.35;3.30;;;;;;;-148.88;47.58;74298.78;4992866;28;20034;-83
2022/08/21 10:24:19;;;;;;;7.55;3.67;;;;;;;-148.88;45.87;74294.72;4990103;28;20510;-84
2022/08/21 10:26:58;;;;;;;9.23;3.65;;;;;;;-148.88;46.74;74274.41;4994260;28;20026;-84
2022/08/21 10:30:00;;;;;;;10.88;4.05;;;;;;;-148.88;47.26;74355.63;4994704;28;20029;-83
2022/08/21 10:32:31;;;;;;;7.90;4.20;;;;;;;-148.88;48.49;74349.53;4993022;28;20062;-85
2022/08/21 10:35:10;;;;;;;8.45;4.40;;;;;;;-148.88;47.85;74373.91;4992603;28;20019;-87
2022/08/21 10:37:55;;;;;;;8.65;4.63;;;;;;;-148.88;48.42;74341.41;4994462;28;20089;-83
2022/08/21 10:40:25;;;;;;;9.70;4.13;;;;;;;-148.88;48.59;74290.66;4993580;28;20033;-86
2022/08/21 10:43:45;;;;;;;7.65;4.43;;;;;;;-148.88;47.38;74282.53;4993932;28;20025;-87
2022/08/21 10:46:37;;;;;;;5.88;4.07;;;;;;;-148.88;45.09;74237.88;4918242;29;20454;-85
2022/08/21 10:49:30;;;;;;;6.28;3.38;;;;;;;-148.88;46.76;74209.44;4990189;28;20097;-83
2022/08/21 10:52:24;;;;;;;8.82;3.50;;;;;;;-148.88;45.31;74233.81;4992034;28;20128;-85
2022/08/21 10:55:17;;;;;;;10.13;4.63;;;;;;;-148.88;45.82;74185.06;4992745;28;20117;-85
2022/08/21 10:57:46;;;;;;;8.73;3.92;;;;;;;-148.88;45.43;74290.66;4990466;28;20045;-84
2022/08/21 11:00:18;;;;;;;10.63;3.50;;;;;;;-148.88;46.70;74317.06;4993430;28;20387;-87
2022/08/21 11:03:10;;;;;;;6.70;3.22;;;;;;;-148.88;45.75;74274.41;4993783;28;20389;-85
2022/08/21 11:05:41;;;;;;;8.38;3.20;;;;;;;-148.88;45.19;74217.56;4992559;28;20121;-84
2022/08/21 11:08:13;;;;;;;6.43;3.35;;;;;;;-148.88;45.03;74205.38;4993463;28;20027;-85
2022/08/21 11:10:49;;;;;;;10.18;3.33;;;;;;;-148.88;45.92;74260.19;4993600;28;20125;-85
2022/08/21 11:13:44;;;;;;;8.10;3.15;;;;;;;-148.88;46.14;74270.34;4992106;28;20390;-85
2022/08/21 11:16:30;;;;;;;8.85;2.97;;;;;;;-148.88;46.84;74294.72;4969853;28;20042;-86
2022/08/21 11:19:04;;;;;;;7.97;2.95;;;;;;;-148.88;46.20;74327.19;4995573;28;20117;-84
2022/08/21 11:21:44;;;;;;;9.40;3.58;;;;;;;-148.88;46.03;74313.00;4996926;28;20033;-85
2022/08/21 11:24:33;;;;;;;8.40;3.10;;;;;;;-148.88;46.32;74333.28;4996691;28;20026;-86